sensor_id;sensor_type;location;lat;lon;timestamp;P1;durP1;ratioP1;P2;durP2;ratioP2
75550;SDS011;65071;53.082;18.218;2023-09-08T00:02:12;10.40;;;7.90;;
75550;SDS011;65071;53.082;18.218;2023-09-08T00:04:39;10.40;;;8.10;;
75550;SDS011;65071;53.082;18.218;2023-09-08T00:07:06;9.70;;;7.00;;
75550;SDS011;65071;53.082;18.218;2023-09-08T00:09:33;11.00;;;8.30;;
75550;SDS011;65071;53.082;18.218;2023-09-08T00:11:59;10.10;;;7.40;;
75550;SDS011;65071;53.082;18.218;2023-09-08T00:14:26;12.10;;;7.90;;
75550;SDS011;65071;53.082;18.218;2023-09-08T00:16:52;10.90;;;7.60;;
75550;SDS011;65071;53.082;18.218;2023-09-08T00:19:22;10.30;;;7.70;;
75550;SDS011;65071;53.082;18.218;2023-09-08T00:21:50;10.60;;;7.70;;
75550;SDS011;65071;53.082;18.218;2023-09-08T00:24:16;12.70;;;8.20;;
75550;SDS011;65071;53.082;18.218;2023-09-08T00:26:44;8.90;;;7.70;;
75550;SDS011;65071;53.082;18.218;2023-09-08T00:29:11;11.40;;;7.90;;
75550;SDS011;65071;53.082;18.218;2023-09-08T00:31:38;9.70;;;7.60;;
75550;SDS011;65071;53.082;18.218;2023-09-08T00:34:04;12.50;;;7.90;;
75550;SDS011;65071;53.082;18.218;2023-09-08T00:36:32;11.00;;;7.80;;
75550;SDS011;65071;53.082;18.218;2023-09-08T00:38:59;10.40;;;8.10;;
75550;SDS011;65071;53.082;18.218;2023-09-08T00:41:26;11.00;;;8.10;;
75550;SDS011;65071;53.082;18.218;2023-09-08T00:43:52;11.20;;;8.20;;
75550;SDS011;65071;53.082;18.218;2023-09-08T00:46:19;10.70;;;8.10;;
75550;SDS011;65071;53.082;18.218;2023-09-08T00:48:45;10.90;;;8.40;;
75550;SDS011;65071;53.082;18.218;2023-09-08T00:51:12;9.40;;;7.60;;
75550;SDS011;65071;53.082;18.218;2023-09-08T00:53:39;12.20;;;8.10;;
75550;SDS011;65071;53.082;18.218;2023-09-08T00:56:06;9.60;;;7.60;;
75550;SDS011;65071;53.082;18.218;2023-09-08T00:58:35;10.10;;;7.90;;
75550;SDS011;65071;53.082;18.218;2023-09-08T01:01:01;10.80;;;8.20;;
75550;SDS011;65071;53.082;18.218;2023-09-08T01:03:28;11.40;;;7.90;;
75550;SDS011;65071;53.082;18.218;2023-09-08T01:05:54;11.40;;;7.80;;
75550;SDS011;65071;53.082;18.218;2023-09-08T01:08:21;11.60;;;7.60;;
75550;SDS011;65071;53.082;18.218;2023-09-08T01:10:48;12.60;;;8.10;;
75550;SDS011;65071;53.082;18.218;2023-09-08T01:13:15;10.10;;;8.10;;
75550;SDS011;65071;53.082;18.218;2023-09-08T01:15:41;9.80;;;7.40;;
75550;SDS011;65071;53.082;18.218;2023-09-08T01:18:08;11.00;;;7.60;;
75550;SDS011;65071;53.082;18.218;2023-09-08T01:20:48;10.60;;;7.90;;
75550;SDS011;65071;53.082;18.218;2023-09-08T01:26:10;12.00;;;7.60;;
75550;SDS011;65071;53.082;18.218;2023-09-08T01:28:45;10.10;;;7.40;;
75550;SDS011;65071;53.082;18.218;2023-09-08T01:31:16;13.40;;;7.60;;
75550;SDS011;65071;53.082;18.218;2023-09-08T01:33:43;10.00;;;7.80;;
75550;SDS011;65071;53.082;18.218;2023-09-08T01:36:11;10.30;;;7.50;;
75550;SDS011;65071;53.082;18.218;2023-09-08T01:38:37;9.90;;;8.20;;
75550;SDS011;65071;53.082;18.218;2023-09-08T01:41:04;14.20;;;8.20;;
75550;SDS011;65071;53.082;18.218;2023-09-08T01:43:31;9.30;;;7.30;;
75550;SDS011;65071;53.082;18.218;2023-09-08T01:45:57;10.60;;;8.10;;
75550;SDS011;65071;53.082;18.218;2023-09-08T01:48:24;14.40;;;8.40;;
75550;SDS011;65071;53.082;18.218;2023-09-08T01:50:50;11.60;;;7.50;;
75550;SDS011;65071;53.082;18.218;2023-09-08T01:53:17;9.40;;;7.30;;
75550;SDS011;65071;53.082;18.218;2023-09-08T01:55:43;10.00;;;8.20;;
75550;SDS011;65071;53.082;18.218;2023-09-08T01:58:10;11.50;;;7.50;;
75550;SDS011;65071;53.082;18.218;2023-09-08T02:00:37;8.60;;;6.90;;
75550;SDS011;65071;53.082;18.218;2023-09-08T02:03:03;11.00;;;6.70;;
75550;SDS011;65071;53.082;18.218;2023-09-08T02:05:30;9.60;;;6.80;;
75550;SDS011;65071;53.082;18.218;2023-09-08T02:07:57;13.80;;;7.50;;
75550;SDS011;65071;53.082;18.218;2023-09-08T02:10:23;12.80;;;8.30;;
75550;SDS011;65071;53.082;18.218;2023-09-08T02:12:50;11.80;;;7.20;;
75550;SDS011;65071;53.082;18.218;2023-09-08T02:15:16;9.60;;;7.50;;
75550;SDS011;65071;53.082;18.218;2023-09-08T02:17:43;9.40;;;6.80;;
75550;SDS011;65071;53.082;18.218;2023-09-08T02:20:10;9.60;;;7.30;;
75550;SDS011;65071;53.082;18.218;2023-09-08T02:22:37;9.10;;;7.30;;
75550;SDS011;65071;53.082;18.218;2023-09-08T02:25:04;11.40;;;7.10;;
75550;SDS011;65071;53.082;18.218;2023-09-08T02:27:30;9.00;;;7.40;;
75550;SDS011;65071;53.082;18.218;2023-09-08T02:29:57;10.80;;;7.70;;
75550;SDS011;65071;53.082;18.218;2023-09-08T02:32:24;10.60;;;8.00;;
75550;SDS011;65071;53.082;18.218;2023-09-08T02:34:50;11.20;;;8.10;;
75550;SDS011;65071;53.082;18.218;2023-09-08T02:37:19;13.90;;;7.70;;
75550;SDS011;65071;53.082;18.218;2023-09-08T02:39:46;8.90;;;6.80;;
75550;SDS011;65071;53.082;18.218;2023-09-08T02:42:13;10.00;;;7.60;;
75550;SDS011;65071;53.082;18.218;2023-09-08T02:44:39;9.80;;;7.20;;
75550;SDS011;65071;53.082;18.218;2023-09-08T02:47:07;10.30;;;8.20;;
75550;SDS011;65071;53.082;18.218;2023-09-08T02:49:34;9.20;;;7.30;;
75550;SDS011;65071;53.082;18.218;2023-09-08T02:52:01;9.80;;;7.80;;
75550;SDS011;65071;53.082;18.218;2023-09-08T02:54:28;9.40;;;7.50;;
75550;SDS011;65071;53.082;18.218;2023-09-08T02:56:54;9.10;;;7.10;;
75550;SDS011;65071;53.082;18.218;2023-09-08T02:59:21;10.20;;;7.10;;
75550;SDS011;65071;53.082;18.218;2023-09-08T03:01:47;10.60;;;7.40;;
75550;SDS011;65071;53.082;18.218;2023-09-08T03:04:14;9.80;;;7.60;;
75550;SDS011;65071;53.082;18.218;2023-09-08T03:06:41;11.60;;;7.60;;
75550;SDS011;65071;53.082;18.218;2023-09-08T03:09:07;10.00;;;7.90;;
75550;SDS011;65071;53.082;18.218;2023-09-08T03:11:34;9.00;;;7.20;;
75550;SDS011;65071;53.082;18.218;2023-09-08T03:14:01;9.60;;;7.80;;
75550;SDS011;65071;53.082;18.218;2023-09-08T03:16:27;10.90;;;7.80;;
75550;SDS011;65071;53.082;18.218;2023-09-08T03:18:54;13.20;;;7.70;;
75550;SDS011;65071;53.082;18.218;2023-09-08T03:21:20;10.20;;;7.30;;
75550;SDS011;65071;53.082;18.218;2023-09-08T03:23:47;11.40;;;7.40;;
75550;SDS011;65071;53.082;18.218;2023-09-08T03:26:14;10.30;;;7.50;;
75550;SDS011;65071;53.082;18.218;2023-09-08T03:28:42;13.10;;;7.70;;
75550;SDS011;65071;53.082;18.218;2023-09-08T03:31:08;9.40;;;7.70;;
75550;SDS011;65071;53.082;18.218;2023-09-08T03:33:35;9.50;;;7.90;;
75550;SDS011;65071;53.082;18.218;2023-09-08T03:36:02;9.10;;;8.00;;
75550;SDS011;65071;53.082;18.218;2023-09-08T03:38:29;9.00;;;7.20;;
75550;SDS011;65071;53.082;18.218;2023-09-08T03:40:56;9.30;;;7.20;;
75550;SDS011;65071;53.082;18.218;2023-09-08T03:43:22;10.20;;;7.70;;
75550;SDS011;65071;53.082;18.218;2023-09-08T03:45:49;11.60;;;7.20;;
75550;SDS011;65071;53.082;18.218;2023-09-08T03:48:15;9.20;;;6.60;;
75550;SDS011;65071;53.082;18.218;2023-09-08T03:50:42;8.60;;;6.70;;
75550;SDS011;65071;53.082;18.218;2023-09-08T03:53:12;10.50;;;7.30;;
75550;SDS011;65071;53.082;18.218;2023-09-08T03:55:39;9.40;;;7.50;;
75550;SDS011;65071;53.082;18.218;2023-09-08T03:58:06;11.40;;;7.80;;
75550;SDS011;65071;53.082;18.218;2023-09-08T04:00:32;10.50;;;7.40;;
75550;SDS011;65071;53.082;18.218;2023-09-08T04:02:59;9.00;;;7.40;;
75550;SDS011;65071;53.082;18.218;2023-09-08T04:05:26;8.90;;;7.20;;
75550;SDS011;65071;53.082;18.218;2023-09-08T04:07:52;9.80;;;8.00;;
75550;SDS011;65071;53.082;18.218;2023-09-08T04:10:19;9.70;;;7.70;;
75550;SDS011;65071;53.082;18.218;2023-09-08T04:12:45;12.40;;;7.80;;
75550;SDS011;65071;53.082;18.218;2023-09-08T04:15:12;10.20;;;7.60;;
75550;SDS011;65071;53.082;18.218;2023-09-08T04:17:39;11.20;;;7.80;;
75550;SDS011;65071;53.082;18.218;2023-09-08T04:20:07;10.90;;;7.40;;
75550;SDS011;65071;53.082;18.218;2023-09-08T04:22:34;10.20;;;7.50;;
75550;SDS011;65071;53.082;18.218;2023-09-08T04:25:01;10.50;;;7.80;;
75550;SDS011;65071;53.082;18.218;2023-09-08T04:27:28;12.60;;;7.50;;
75550;SDS011;65071;53.082;18.218;2023-09-08T04:29:55;10.50;;;7.20;;
75550;SDS011;65071;53.082;18.218;2023-09-08T04:32:21;13.80;;;8.10;;
75550;SDS011;65071;53.082;18.218;2023-09-08T04:34:48;10.40;;;8.00;;
75550;SDS011;65071;53.082;18.218;2023-09-08T04:37:15;12.20;;;7.10;;
75550;SDS011;65071;53.082;18.218;2023-09-08T04:39:42;13.40;;;7.90;;
75550;SDS011;65071;53.082;18.218;2023-09-08T04:42:10;11.40;;;7.30;;
75550;SDS011;65071;53.082;18.218;2023-09-08T04:44:37;11.70;;;8.10;;
75550;SDS011;65071;53.082;18.218;2023-09-08T04:47:04;12.40;;;8.00;;
75550;SDS011;65071;53.082;18.218;2023-09-08T04:49:31;12.40;;;7.30;;
75550;SDS011;65071;53.082;18.218;2023-09-08T04:51:57;12.00;;;8.10;;
75550;SDS011;65071;53.082;18.218;2023-09-08T04:54:24;12.00;;;8.20;;
75550;SDS011;65071;53.082;18.218;2023-09-08T05:01:49;15.20;;;7.60;;
75550;SDS011;65071;53.082;18.218;2023-09-08T05:04:17;18.80;;;7.50;;
75550;SDS011;65071;53.082;18.218;2023-09-08T05:06:44;11.70;;;7.30;;
75550;SDS011;65071;53.082;18.218;2023-09-08T05:09:12;16.50;;;9.00;;
75550;SDS011;65071;53.082;18.218;2023-09-08T05:11:38;10.60;;;7.40;;
75550;SDS011;65071;53.082;18.218;2023-09-08T05:14:05;14.70;;;7.90;;
75550;SDS011;65071;53.082;18.218;2023-09-08T05:16:32;13.20;;;8.50;;
75550;SDS011;65071;53.082;18.218;2023-09-08T05:19:18;11.30;;;8.50;;
75550;SDS011;65071;53.082;18.218;2023-09-08T05:21:44;12.10;;;8.30;;
75550;SDS011;65071;53.082;18.218;2023-09-08T05:24:11;15.50;;;8.60;;
75550;SDS011;65071;53.082;18.218;2023-09-08T05:26:37;13.40;;;8.90;;
75550;SDS011;65071;53.082;18.218;2023-09-08T05:29:07;10.50;;;7.80;;
75550;SDS011;65071;53.082;18.218;2023-09-08T05:31:34;13.70;;;9.10;;
75550;SDS011;65071;53.082;18.218;2023-09-08T05:34:00;13.90;;;8.20;;
75550;SDS011;65071;53.082;18.218;2023-09-08T05:36:27;12.20;;;8.10;;
75550;SDS011;65071;53.082;18.218;2023-09-08T05:38:55;11.80;;;7.70;;
75550;SDS011;65071;53.082;18.218;2023-09-08T05:41:22;14.80;;;8.50;;
75550;SDS011;65071;53.082;18.218;2023-09-08T05:43:48;12.00;;;8.20;;
75550;SDS011;65071;53.082;18.218;2023-09-08T05:46:15;12.20;;;8.40;;
75550;SDS011;65071;53.082;18.218;2023-09-08T05:48:42;16.80;;;9.20;;
75550;SDS011;65071;53.082;18.218;2023-09-08T05:51:09;11.10;;;8.20;;
75550;SDS011;65071;53.082;18.218;2023-09-08T05:53:37;12.90;;;9.40;;
75550;SDS011;65071;53.082;18.218;2023-09-08T05:56:06;13.70;;;8.80;;
75550;SDS011;65071;53.082;18.218;2023-09-08T05:58:33;11.40;;;9.20;;
75550;SDS011;65071;53.082;18.218;2023-09-08T06:01:01;11.70;;;8.40;;
75550;SDS011;65071;53.082;18.218;2023-09-08T06:03:30;11.50;;;7.90;;
75550;SDS011;65071;53.082;18.218;2023-09-08T06:05:58;11.80;;;9.10;;
75550;SDS011;65071;53.082;18.218;2023-09-08T06:08:26;13.20;;;8.80;;
75550;SDS011;65071;53.082;18.218;2023-09-08T06:10:52;13.20;;;8.90;;
75550;SDS011;65071;53.082;18.218;2023-09-08T06:13:20;12.30;;;8.60;;
75550;SDS011;65071;53.082;18.218;2023-09-08T06:15:47;11.40;;;9.20;;
75550;SDS011;65071;53.082;18.218;2023-09-08T06:18:14;11.90;;;9.30;;
75550;SDS011;65071;53.082;18.218;2023-09-08T06:20:47;12.60;;;9.10;;
75550;SDS011;65071;53.082;18.218;2023-09-08T06:23:14;10.50;;;8.60;;
75550;SDS011;65071;53.082;18.218;2023-09-08T06:25:41;12.70;;;7.80;;
75550;SDS011;65071;53.082;18.218;2023-09-08T06:28:08;11.10;;;8.60;;
75550;SDS011;65071;53.082;18.218;2023-09-08T06:30:34;12.90;;;9.50;;
75550;SDS011;65071;53.082;18.218;2023-09-08T06:33:01;11.70;;;9.00;;
75550;SDS011;65071;53.082;18.218;2023-09-08T06:35:29;11.80;;;9.40;;
75550;SDS011;65071;53.082;18.218;2023-09-08T06:37:56;13.30;;;9.20;;
75550;SDS011;65071;53.082;18.218;2023-09-08T06:40:24;12.20;;;9.50;;
75550;SDS011;65071;53.082;18.218;2023-09-08T06:42:51;13.60;;;8.40;;
75550;SDS011;65071;53.082;18.218;2023-09-08T06:45:26;12.70;;;8.40;;
75550;SDS011;65071;53.082;18.218;2023-09-08T06:47:54;12.10;;;8.70;;
75550;SDS011;65071;53.082;18.218;2023-09-08T06:50:21;14.50;;;8.80;;
75550;SDS011;65071;53.082;18.218;2023-09-08T06:52:49;12.30;;;8.90;;
75550;SDS011;65071;53.082;18.218;2023-09-08T06:55:16;14.10;;;9.00;;
75550;SDS011;65071;53.082;18.218;2023-09-08T06:57:43;13.20;;;8.70;;
75550;SDS011;65071;53.082;18.218;2023-09-08T07:00:11;14.10;;;9.00;;
75550;SDS011;65071;53.082;18.218;2023-09-08T07:02:38;14.80;;;8.80;;
75550;SDS011;65071;53.082;18.218;2023-09-08T07:05:07;14.00;;;9.10;;
75550;SDS011;65071;53.082;18.218;2023-09-08T07:07:35;10.80;;;7.10;;
75550;SDS011;65071;53.082;18.218;2023-09-08T07:10:05;12.10;;;9.70;;
75550;SDS011;65071;53.082;18.218;2023-09-08T07:12:32;13.90;;;9.00;;
75550;SDS011;65071;53.082;18.218;2023-09-08T07:14:58;11.80;;;8.70;;
75550;SDS011;65071;53.082;18.218;2023-09-08T07:17:26;15.20;;;10.20;;
75550;SDS011;65071;53.082;18.218;2023-09-08T07:19:53;15.50;;;9.30;;
75550;SDS011;65071;53.082;18.218;2023-09-08T07:22:20;10.90;;;8.50;;
75550;SDS011;65071;53.082;18.218;2023-09-08T07:24:47;16.20;;;9.40;;
75550;SDS011;65071;53.082;18.218;2023-09-08T07:27:14;11.60;;;8.00;;
75550;SDS011;65071;53.082;18.218;2023-09-08T07:29:41;15.50;;;9.40;;
75550;SDS011;65071;53.082;18.218;2023-09-08T07:32:08;15.10;;;8.80;;
75550;SDS011;65071;53.082;18.218;2023-09-08T07:34:35;10.70;;;9.10;;
75550;SDS011;65071;53.082;18.218;2023-09-08T07:37:02;15.20;;;8.90;;
75550;SDS011;65071;53.082;18.218;2023-09-08T07:39:30;9.70;;;8.50;;
75550;SDS011;65071;53.082;18.218;2023-09-08T07:41:58;9.70;;;7.30;;
75550;SDS011;65071;53.082;18.218;2023-09-08T07:44:26;9.30;;;7.70;;
75550;SDS011;65071;53.082;18.218;2023-09-08T07:46:53;12.70;;;9.20;;
75550;SDS011;65071;53.082;18.218;2023-09-08T07:49:21;12.30;;;8.80;;
75550;SDS011;65071;53.082;18.218;2023-09-08T07:51:49;15.20;;;9.00;;
75550;SDS011;65071;53.082;18.218;2023-09-08T07:54:15;12.70;;;8.80;;
75550;SDS011;65071;53.082;18.218;2023-09-08T07:56:42;13.60;;;9.00;;
75550;SDS011;65071;53.082;18.218;2023-09-08T07:59:09;15.50;;;9.70;;
75550;SDS011;65071;53.082;18.218;2023-09-08T08:01:35;13.00;;;9.70;;
75550;SDS011;65071;53.082;18.218;2023-09-08T08:04:06;11.80;;;9.30;;
75550;SDS011;65071;53.082;18.218;2023-09-08T08:06:33;13.60;;;9.60;;
75550;SDS011;65071;53.082;18.218;2023-09-08T08:09:00;12.20;;;7.20;;
75550;SDS011;65071;53.082;18.218;2023-09-08T08:11:27;12.50;;;9.80;;
75550;SDS011;65071;53.082;18.218;2023-09-08T08:13:54;13.30;;;9.50;;
75550;SDS011;65071;53.082;18.218;2023-09-08T08:16:23;16.40;;;10.50;;
75550;SDS011;65071;53.082;18.218;2023-09-08T08:18:50;11.80;;;9.40;;
75550;SDS011;65071;53.082;18.218;2023-09-08T08:21:17;13.50;;;9.20;;
75550;SDS011;65071;53.082;18.218;2023-09-08T08:23:43;9.20;;;8.00;;
75550;SDS011;65071;53.082;18.218;2023-09-08T08:26:10;10.60;;;7.90;;
75550;SDS011;65071;53.082;18.218;2023-09-08T08:28:37;14.70;;;9.60;;
75550;SDS011;65071;53.082;18.218;2023-09-08T08:31:03;12.60;;;8.40;;
75550;SDS011;65071;53.082;18.218;2023-09-08T08:33:31;11.60;;;10.00;;
75550;SDS011;65071;53.082;18.218;2023-09-08T08:35:58;13.50;;;9.00;;
75550;SDS011;65071;53.082;18.218;2023-09-08T08:38:24;14.90;;;9.20;;
75550;SDS011;65071;53.082;18.218;2023-09-08T08:40:51;13.20;;;9.30;;
75550;SDS011;65071;53.082;18.218;2023-09-08T08:43:17;15.30;;;9.50;;
75550;SDS011;65071;53.082;18.218;2023-09-08T08:45:45;11.70;;;9.30;;
75550;SDS011;65071;53.082;18.218;2023-09-08T08:48:12;13.10;;;8.30;;
75550;SDS011;65071;53.082;18.218;2023-09-08T08:50:40;12.30;;;9.20;;
75550;SDS011;65071;53.082;18.218;2023-09-08T08:53:08;13.70;;;9.40;;
75550;SDS011;65071;53.082;18.218;2023-09-08T08:55:35;11.10;;;8.70;;
75550;SDS011;65071;53.082;18.218;2023-09-08T08:58:04;13.60;;;9.70;;
75550;SDS011;65071;53.082;18.218;2023-09-08T09:03:04;8.80;;;6.90;;
75550;SDS011;65071;53.082;18.218;2023-09-08T09:05:32;14.20;;;9.00;;
75550;SDS011;65071;53.082;18.218;2023-09-08T09:08:01;13.00;;;8.50;;
75550;SDS011;65071;53.082;18.218;2023-09-08T09:10:32;10.20;;;7.80;;
75550;SDS011;65071;53.082;18.218;2023-09-08T09:12:59;11.00;;;7.90;;
75550;SDS011;65071;53.082;18.218;2023-09-08T09:15:29;7.70;;;6.40;;
75550;SDS011;65071;53.082;18.218;2023-09-08T09:18:03;8.20;;;6.60;;
75550;SDS011;65071;53.082;18.218;2023-09-08T09:22:58;6.60;;;5.50;;
75550;SDS011;65071;53.082;18.218;2023-09-08T09:25:26;9.00;;;5.30;;
75550;SDS011;65071;53.082;18.218;2023-09-08T09:28:03;9.40;;;5.50;;
75550;SDS011;65071;53.082;18.218;2023-09-08T09:30:51;6.80;;;5.20;;
75550;SDS011;65071;53.082;18.218;2023-09-08T09:33:20;6.50;;;5.50;;
75550;SDS011;65071;53.082;18.218;2023-09-08T09:35:52;4.40;;;3.70;;
75550;SDS011;65071;53.082;18.218;2023-09-08T09:38:20;6.10;;;4.80;;
75550;SDS011;65071;53.082;18.218;2023-09-08T09:40:48;5.60;;;4.40;;
75550;SDS011;65071;53.082;18.218;2023-09-08T09:43:15;5.90;;;4.90;;
75550;SDS011;65071;53.082;18.218;2023-09-08T09:45:43;6.90;;;4.80;;
75550;SDS011;65071;53.082;18.218;2023-09-08T09:48:10;5.60;;;4.70;;
75550;SDS011;65071;53.082;18.218;2023-09-08T09:50:38;6.40;;;4.70;;
75550;SDS011;65071;53.082;18.218;2023-09-08T09:53:13;6.60;;;4.10;;
75550;SDS011;65071;53.082;18.218;2023-09-08T09:55:42;6.00;;;3.70;;
75550;SDS011;65071;53.082;18.218;2023-09-08T09:58:10;8.20;;;4.10;;
75550;SDS011;65071;53.082;18.218;2023-09-08T10:00:37;5.70;;;4.20;;
75550;SDS011;65071;53.082;18.218;2023-09-08T10:03:06;4.70;;;3.90;;
75550;SDS011;65071;53.082;18.218;2023-09-08T10:05:34;4.40;;;4.00;;
75550;SDS011;65071;53.082;18.218;2023-09-08T10:08:03;4.80;;;3.80;;
75550;SDS011;65071;53.082;18.218;2023-09-08T10:10:30;4.50;;;3.50;;
75550;SDS011;65071;53.082;18.218;2023-09-08T10:13:02;6.00;;;3.60;;
75550;SDS011;65071;53.082;18.218;2023-09-08T10:15:31;5.30;;;4.20;;
75550;SDS011;65071;53.082;18.218;2023-09-08T10:17:58;5.50;;;3.90;;
75550;SDS011;65071;53.082;18.218;2023-09-08T10:20:29;4.60;;;4.10;;
75550;SDS011;65071;53.082;18.218;2023-09-08T10:25:50;3.90;;;3.50;;
75550;SDS011;65071;53.082;18.218;2023-09-08T10:28:23;3.90;;;3.50;;
75550;SDS011;65071;53.082;18.218;2023-09-08T10:30:51;5.10;;;4.60;;
75550;SDS011;65071;53.082;18.218;2023-09-08T10:33:19;5.30;;;3.50;;
75550;SDS011;65071;53.082;18.218;2023-09-08T10:35:46;4.10;;;3.70;;
75550;SDS011;65071;53.082;18.218;2023-09-08T10:38:22;5.50;;;4.60;;
75550;SDS011;65071;53.082;18.218;2023-09-08T10:40:50;4.60;;;3.70;;
75550;SDS011;65071;53.082;18.218;2023-09-08T10:43:17;3.90;;;3.50;;
75550;SDS011;65071;53.082;18.218;2023-09-08T10:45:46;7.40;;;3.80;;
75550;SDS011;65071;53.082;18.218;2023-09-08T10:48:13;5.80;;;3.80;;
75550;SDS011;65071;53.082;18.218;2023-09-08T10:50:42;4.00;;;3.50;;
75550;SDS011;65071;53.082;18.218;2023-09-08T10:53:15;4.00;;;2.90;;
75550;SDS011;65071;53.082;18.218;2023-09-08T10:55:45;4.00;;;3.10;;
75550;SDS011;65071;53.082;18.218;2023-09-08T10:58:17;6.80;;;3.60;;
75550;SDS011;65071;53.082;18.218;2023-09-08T11:00:51;4.60;;;3.40;;
75550;SDS011;65071;53.082;18.218;2023-09-08T11:06:05;4.60;;;3.10;;
75550;SDS011;65071;53.082;18.218;2023-09-08T11:08:32;4.70;;;3.40;;
75550;SDS011;65071;53.082;18.218;2023-09-08T11:10:59;4.60;;;3.20;;
75550;SDS011;65071;53.082;18.218;2023-09-08T11:13:27;4.00;;;3.50;;
75550;SDS011;65071;53.082;18.218;2023-09-08T11:15:56;4.40;;;4.00;;
75550;SDS011;65071;53.082;18.218;2023-09-08T11:18:30;4.20;;;3.50;;
75550;SDS011;65071;53.082;18.218;2023-09-08T11:20:57;5.20;;;3.60;;
75550;SDS011;65071;53.082;18.218;2023-09-08T11:23:24;4.00;;;3.00;;
75550;SDS011;65071;53.082;18.218;2023-09-08T11:25:52;4.70;;;3.70;;
75550;SDS011;65071;53.082;18.218;2023-09-08T11:28:23;4.40;;;3.70;;
75550;SDS011;65071;53.082;18.218;2023-09-08T11:30:50;4.60;;;3.70;;
75550;SDS011;65071;53.082;18.218;2023-09-08T11:33:18;4.40;;;3.00;;
75550;SDS011;65071;53.082;18.218;2023-09-08T11:35:48;8.70;;;3.60;;
75550;SDS011;65071;53.082;18.218;2023-09-08T11:38:14;3.50;;;3.20;;
75550;SDS011;65071;53.082;18.218;2023-09-08T11:40:41;4.50;;;3.50;;
75550;SDS011;65071;53.082;18.218;2023-09-08T11:43:08;3.80;;;3.40;;
75550;SDS011;65071;53.082;18.218;2023-09-08T11:45:34;4.90;;;3.40;;
75550;SDS011;65071;53.082;18.218;2023-09-08T11:48:03;3.50;;;3.10;;
75550;SDS011;65071;53.082;18.218;2023-09-08T11:50:30;7.70;;;3.50;;
75550;SDS011;65071;53.082;18.218;2023-09-08T11:52:58;4.10;;;3.60;;
75550;SDS011;65071;53.082;18.218;2023-09-08T11:55:25;6.20;;;3.80;;
75550;SDS011;65071;53.082;18.218;2023-09-08T11:57:52;5.20;;;3.20;;
75550;SDS011;65071;53.082;18.218;2023-09-08T12:00:29;4.30;;;3.50;;
75550;SDS011;65071;53.082;18.218;2023-09-08T12:02:55;5.80;;;3.80;;
75550;SDS011;65071;53.082;18.218;2023-09-08T12:05:35;5.60;;;3.20;;
75550;SDS011;65071;53.082;18.218;2023-09-08T12:08:03;6.00;;;3.60;;
75550;SDS011;65071;53.082;18.218;2023-09-08T12:15:47;4.80;;;3.20;;
75550;SDS011;65071;53.082;18.218;2023-09-08T12:18:16;3.60;;;3.20;;
75550;SDS011;65071;53.082;18.218;2023-09-08T12:20:44;3.80;;;3.10;;
75550;SDS011;65071;53.082;18.218;2023-09-08T12:23:20;3.70;;;3.10;;
75550;SDS011;65071;53.082;18.218;2023-09-08T12:25:52;3.40;;;3.10;;
75550;SDS011;65071;53.082;18.218;2023-09-08T12:28:39;4.60;;;3.20;;
75550;SDS011;65071;53.082;18.218;2023-09-08T12:31:07;3.90;;;3.20;;
75550;SDS011;65071;53.082;18.218;2023-09-08T12:33:35;2.50;;;2.30;;
75550;SDS011;65071;53.082;18.218;2023-09-08T12:38:50;5.00;;;3.20;;
75550;SDS011;65071;53.082;18.218;2023-09-08T12:41:18;4.00;;;3.50;;
75550;SDS011;65071;53.082;18.218;2023-09-08T12:43:45;4.30;;;3.40;;
75550;SDS011;65071;53.082;18.218;2023-09-08T12:46:12;3.70;;;3.40;;
75550;SDS011;65071;53.082;18.218;2023-09-08T12:48:38;3.70;;;3.10;;
75550;SDS011;65071;53.082;18.218;2023-09-08T12:51:05;4.50;;;3.30;;
75550;SDS011;65071;53.082;18.218;2023-09-08T12:53:33;3.30;;;2.90;;
75550;SDS011;65071;53.082;18.218;2023-09-08T12:56:01;4.70;;;3.90;;
75550;SDS011;65071;53.082;18.218;2023-09-08T12:58:28;4.50;;;3.50;;
75550;SDS011;65071;53.082;18.218;2023-09-08T13:00:55;4.10;;;3.30;;
75550;SDS011;65071;53.082;18.218;2023-09-08T13:03:22;5.30;;;3.60;;
75550;SDS011;65071;53.082;18.218;2023-09-08T13:05:49;4.40;;;3.20;;
75550;SDS011;65071;53.082;18.218;2023-09-08T13:08:16;5.40;;;3.80;;
75550;SDS011;65071;53.082;18.218;2023-09-08T13:10:42;5.70;;;3.60;;
75550;SDS011;65071;53.082;18.218;2023-09-08T13:13:09;4.10;;;3.30;;
75550;SDS011;65071;53.082;18.218;2023-09-08T13:15:35;4.50;;;3.30;;
75550;SDS011;65071;53.082;18.218;2023-09-08T13:18:02;3.90;;;3.30;;
75550;SDS011;65071;53.082;18.218;2023-09-08T13:20:29;4.50;;;3.60;;
75550;SDS011;65071;53.082;18.218;2023-09-08T13:22:56;4.30;;;3.40;;
75550;SDS011;65071;53.082;18.218;2023-09-08T13:25:23;9.00;;;3.50;;
75550;SDS011;65071;53.082;18.218;2023-09-08T13:27:50;4.90;;;3.40;;
75550;SDS011;65071;53.082;18.218;2023-09-08T13:30:17;3.50;;;3.20;;
75550;SDS011;65071;53.082;18.218;2023-09-08T13:32:45;3.20;;;2.90;;
75550;SDS011;65071;53.082;18.218;2023-09-08T13:35:11;3.90;;;3.40;;
75550;SDS011;65071;53.082;18.218;2023-09-08T13:37:38;4.70;;;3.70;;
75550;SDS011;65071;53.082;18.218;2023-09-08T13:40:05;4.40;;;3.00;;
75550;SDS011;65071;53.082;18.218;2023-09-08T13:42:34;4.00;;;3.40;;
75550;SDS011;65071;53.082;18.218;2023-09-08T13:45:01;5.60;;;3.80;;
75550;SDS011;65071;53.082;18.218;2023-09-08T13:47:27;3.80;;;3.30;;
75550;SDS011;65071;53.082;18.218;2023-09-08T13:49:54;5.90;;;3.50;;
75550;SDS011;65071;53.082;18.218;2023-09-08T13:52:20;3.60;;;3.30;;
75550;SDS011;65071;53.082;18.218;2023-09-08T13:54:47;5.00;;;3.40;;
75550;SDS011;65071;53.082;18.218;2023-09-08T13:57:13;6.20;;;3.50;;
75550;SDS011;65071;53.082;18.218;2023-09-08T13:59:40;3.90;;;3.40;;
75550;SDS011;65071;53.082;18.218;2023-09-08T14:02:07;6.30;;;3.70;;
75550;SDS011;65071;53.082;18.218;2023-09-08T14:04:34;4.50;;;3.60;;
75550;SDS011;65071;53.082;18.218;2023-09-08T14:07:00;3.90;;;2.60;;
75550;SDS011;65071;53.082;18.218;2023-09-08T14:09:27;4.00;;;3.50;;
75550;SDS011;65071;53.082;18.218;2023-09-08T14:11:54;4.60;;;3.60;;
75550;SDS011;65071;53.082;18.218;2023-09-08T14:14:21;5.60;;;3.30;;
75550;SDS011;65071;53.082;18.218;2023-09-08T14:16:48;3.40;;;3.00;;
75550;SDS011;65071;53.082;18.218;2023-09-08T14:19:14;4.60;;;3.40;;
75550;SDS011;65071;53.082;18.218;2023-09-08T14:21:41;3.50;;;3.10;;
75550;SDS011;65071;53.082;18.218;2023-09-08T14:24:08;7.80;;;3.70;;
75550;SDS011;65071;53.082;18.218;2023-09-08T14:26:34;3.70;;;3.20;;
75550;SDS011;65071;53.082;18.218;2023-09-08T14:29:01;4.70;;;3.40;;
75550;SDS011;65071;53.082;18.218;2023-09-08T14:31:28;4.30;;;2.90;;
75550;SDS011;65071;53.082;18.218;2023-09-08T14:33:55;5.90;;;4.10;;
75550;SDS011;65071;53.082;18.218;2023-09-08T14:36:22;5.50;;;2.80;;
75550;SDS011;65071;53.082;18.218;2023-09-08T14:38:48;6.10;;;3.80;;
75550;SDS011;65071;53.082;18.218;2023-09-08T14:41:15;4.20;;;3.20;;
75550;SDS011;65071;53.082;18.218;2023-09-08T14:43:42;4.40;;;3.40;;
75550;SDS011;65071;53.082;18.218;2023-09-08T14:46:08;3.80;;;3.30;;
75550;SDS011;65071;53.082;18.218;2023-09-08T14:48:35;4.00;;;3.50;;
75550;SDS011;65071;53.082;18.218;2023-09-08T14:51:02;4.40;;;3.00;;
75550;SDS011;65071;53.082;18.218;2023-09-08T14:53:30;3.80;;;3.50;;
75550;SDS011;65071;53.082;18.218;2023-09-08T14:55:58;7.00;;;3.80;;
75550;SDS011;65071;53.082;18.218;2023-09-08T14:58:25;3.80;;;3.30;;